createdAt,value
2023-04-04T00:00:43.948Z,4.60
2023-04-04T00:03:11.334Z,2.97
2023-04-04T00:05:38.309Z,3.35
2023-04-04T00:08:07.038Z,4.18
2023-04-04T00:10:34.062Z,6.35
2023-04-04T00:13:02.014Z,5.35
2023-04-04T00:15:29.133Z,3.65
2023-04-04T00:17:57.978Z,4.75
2023-04-04T00:20:25.071Z,3.45
2023-04-04T00:22:52.024Z,4.00
2023-04-04T00:25:20.218Z,5.80
2023-04-04T00:27:49.072Z,5.15
2023-04-04T00:30:16.678Z,4.63
2023-04-04T00:32:44.053Z,3.38
2023-04-04T00:35:11.732Z,7.47
2023-04-04T00:37:39.381Z,4.25
2023-04-04T00:40:07.332Z,7.93
2023-04-04T00:42:35.086Z,4.35
2023-04-04T00:45:02.338Z,5.32
2023-04-04T00:47:31.924Z,5.45
2023-04-04T00:49:59.815Z,4.53
2023-04-04T00:52:27.291Z,4.47
2023-04-04T00:54:56.842Z,3.95
2023-04-04T00:57:24.775Z,6.25
2023-04-04T00:59:52.286Z,3.75
2023-04-04T01:02:19.325Z,6.80
2023-04-04T01:04:47.278Z,6.57
2023-04-04T01:07:15.728Z,7.00
2023-04-04T01:09:43.688Z,7.35
2023-04-04T01:12:11.483Z,6.32
2023-04-04T01:14:38.662Z,5.65
2023-04-04T01:17:06.324Z,5.20
2023-04-04T01:19:41.421Z,5.57
2023-04-04T01:22:10.029Z,4.60
2023-04-04T01:24:38.312Z,5.25
2023-04-04T01:27:05.941Z,7.57
2023-04-04T01:29:34.169Z,4.63
2023-04-04T01:32:07.238Z,2.95
2023-04-04T01:35:04.085Z,13.65
2023-04-04T01:37:56.097Z,5.18
2023-04-04T01:40:27.318Z,6.35
2023-04-04T01:42:56.096Z,4.82
2023-04-04T01:45:24.889Z,6.20
2023-04-04T01:47:52.240Z,4.72
2023-04-04T01:50:19.848Z,3.22
2023-04-04T01:52:47.887Z,5.75
2023-04-04T01:55:14.924Z,7.07
2023-04-04T01:57:42.109Z,8.25
2023-04-04T02:00:10.924Z,12.95
2023-04-04T02:02:37.966Z,3.85
2023-04-04T02:05:05.404Z,8.75
2023-04-04T02:07:32.355Z,7.18
2023-04-04T02:09:59.274Z,5.47
2023-04-04T02:12:27.188Z,4.40
2023-04-04T02:14:54.122Z,4.75
2023-04-04T02:17:21.758Z,7.38
2023-04-04T02:19:49.755Z,5.25
2023-04-04T02:22:16.896Z,6.18
2023-04-04T02:24:44.179Z,6.05
2023-04-04T02:27:11.284Z,5.03
2023-04-04T02:29:38.237Z,2.53
2023-04-04T02:32:05.482Z,5.43
2023-04-04T02:34:32.887Z,3.45
2023-04-04T02:36:59.919Z,4.35
2023-04-04T02:39:27.107Z,6.57
2023-04-04T02:41:54.102Z,8.63
2023-04-04T02:44:21.004Z,5.50
2023-04-04T02:46:48.439Z,6.40
2023-04-04T02:49:16.693Z,4.95
2023-04-04T02:51:43.619Z,5.95
2023-04-04T02:54:12.118Z,6.15
2023-04-04T02:56:41.682Z,5.78
2023-04-04T02:59:08.799Z,3.17
2023-04-04T03:01:35.812Z,4.07
2023-04-04T03:04:04.958Z,7.38
2023-04-04T03:06:33.872Z,3.63
2023-04-04T03:09:01.349Z,5.82
2023-04-04T03:11:28.323Z,5.30
2023-04-04T03:13:56.238Z,5.55
2023-04-04T03:16:23.800Z,7.05
2023-04-04T03:18:50.901Z,6.10
2023-04-04T03:21:19.441Z,6.50
2023-04-04T03:23:46.794Z,5.97
2023-04-04T03:26:13.948Z,8.73
2023-04-04T03:28:40.909Z,9.00
2023-04-04T03:31:08.307Z,10.25
2023-04-04T03:33:38.764Z,7.20
2023-04-04T03:36:13.503Z,5.18
2023-04-04T03:41:08.394Z,3.15
2023-04-04T03:43:36.031Z,3.72
2023-04-04T03:46:04.695Z,5.60
2023-04-04T03:48:32.151Z,3.80
2023-04-04T03:50:59.626Z,5.43
2023-04-04T03:53:27.530Z,6.30
2023-04-04T03:55:57.823Z,4.80
2023-04-04T03:58:26.120Z,3.78
2023-04-04T04:00:53.718Z,4.03
2023-04-04T04:03:21.886Z,3.90
2023-04-04T04:05:49.196Z,7.13
2023-04-04T04:08:16.160Z,8.05
2023-04-04T04:10:43.180Z,3.15
2023-04-04T04:13:10.128Z,6.25
2023-04-04T04:15:37.909Z,7.38
2023-04-04T04:18:05.128Z,8.75
2023-04-04T04:20:32.291Z,3.95
2023-04-04T04:22:59.324Z,6.60
2023-04-04T04:25:27.252Z,5.75
2023-04-04T04:27:58.141Z,6.95
2023-04-04T04:30:25.294Z,6.82
2023-04-04T04:32:52.526Z,4.63
2023-04-04T04:35:19.502Z,6.22
2023-04-04T04:37:46.559Z,8.43
2023-04-04T04:40:17.306Z,5.13
2023-04-04T04:42:46.675Z,6.20
2023-04-04T04:45:14.640Z,5.05
2023-04-04T04:47:42.090Z,4.70
2023-04-04T04:50:09.849Z,4.85
2023-04-04T04:52:39.074Z,6.47
2023-04-04T04:55:06.677Z,4.60
2023-04-04T04:57:34.431Z,9.20
2023-04-04T05:00:01.743Z,9.52
2023-04-04T05:02:28.911Z,7.70
2023-04-04T05:04:56.499Z,9.35
2023-04-04T05:07:25.665Z,9.63
2023-04-04T05:09:52.882Z,9.18
2023-04-04T05:12:21.304Z,7.35
2023-04-04T05:14:48.421Z,6.43
2023-04-04T05:17:24.908Z,6.63
2023-04-04T05:19:53.758Z,7.10
2023-04-04T05:22:22.584Z,7.43
2023-04-04T05:24:50.080Z,10.30
2023-04-04T05:27:17.070Z,11.57
2023-04-04T05:29:47.155Z,7.27
2023-04-04T05:32:15.168Z,7.70
2023-04-04T05:34:47.151Z,8.30
2023-04-04T05:37:15.274Z,9.50
2023-04-04T05:39:44.894Z,10.93
2023-04-04T05:42:12.242Z,10.10
2023-04-04T05:44:45.325Z,10.60
2023-04-04T05:47:12.699Z,8.80
2023-04-04T05:49:39.905Z,10.23
2023-04-04T05:52:08.099Z,7.40
2023-04-04T05:54:35.565Z,11.52
2023-04-04T05:57:04.318Z,7.63
2023-04-04T05:59:31.710Z,9.40
2023-04-04T06:01:58.783Z,6.90
2023-04-04T06:04:26.879Z,9.65
2023-04-04T06:06:54.937Z,5.28
2023-04-04T06:09:22.109Z,5.95
2023-04-04T06:11:49.219Z,7.47
2023-04-04T06:14:16.704Z,7.38
2023-04-04T06:16:44.112Z,9.10
2023-04-04T06:19:11.359Z,8.38
2023-04-04T06:21:38.368Z,13.85
2023-04-04T06:24:05.533Z,9.13
2023-04-04T06:26:32.464Z,9.02
2023-04-04T06:28:59.915Z,8.88
2023-04-04T06:31:27.860Z,8.07
2023-04-04T06:33:54.838Z,8.52
2023-04-04T06:36:22.698Z,5.20
2023-04-04T06:38:50.131Z,9.38
2023-04-04T06:41:17.964Z,9.95
2023-04-04T06:43:47.261Z,8.77
2023-04-04T06:46:15.997Z,5.85
2023-04-04T06:48:43.573Z,10.75
2023-04-04T06:51:11.618Z,6.70
2023-04-04T06:53:40.599Z,5.35
2023-04-04T06:56:10.203Z,8.57
2023-04-04T06:58:39.169Z,7.68
2023-04-04T07:01:06.717Z,8.52
2023-04-04T07:03:34.172Z,8.52
2023-04-04T07:06:04.973Z,7.72
2023-04-04T07:08:36.910Z,5.97
2023-04-04T07:11:08.860Z,9.30
2023-04-04T07:13:39.058Z,7.53
2023-04-04T07:16:08.210Z,5.93
2023-04-04T07:18:36.496Z,8.63
2023-04-04T07:21:03.702Z,5.78
2023-04-04T07:23:32.817Z,6.65
2023-04-04T07:25:59.846Z,9.07
2023-04-04T07:28:27.898Z,6.85
2023-04-04T07:30:57.244Z,6.55
2023-04-04T07:33:24.296Z,7.72
2023-04-04T07:35:54.116Z,6.53
2023-04-04T07:38:22.518Z,6.65
2023-04-04T07:40:51.792Z,6.72
2023-04-04T07:43:19.777Z,5.18
2023-04-04T07:45:46.877Z,8.18
2023-04-04T07:48:13.942Z,4.68
2023-04-04T07:50:42.110Z,7.72
2023-04-04T07:53:13.906Z,7.72
2023-04-04T07:55:41.134Z,7.00
2023-04-04T07:58:09.032Z,5.03
2023-04-04T08:00:36.210Z,5.40
2023-04-04T08:03:05.423Z,5.68
2023-04-04T08:05:33.478Z,4.68
2023-04-04T08:08:01.302Z,9.15
2023-04-04T08:10:28.668Z,5.18
2023-04-04T08:12:55.980Z,5.57
2023-04-04T08:15:23.183Z,5.50
2023-04-04T08:17:50.382Z,8.55
2023-04-04T08:20:19.037Z,6.47
2023-04-04T08:22:47.133Z,5.80
2023-04-04T08:25:14.699Z,3.05
2023-04-04T08:27:44.280Z,8.20
2023-04-04T08:30:16.780Z,3.42
2023-04-04T08:32:45.814Z,7.60
2023-04-04T08:35:23.491Z,5.07
2023-04-04T08:37:50.923Z,5.70
2023-04-04T08:40:19.737Z,3.30
2023-04-04T08:42:48.607Z,4.50
2023-04-04T08:45:20.405Z,2.95
2023-04-04T08:47:53.319Z,5.18
2023-04-04T08:50:21.948Z,5.07
2023-04-04T08:52:50.542Z,4.15
2023-04-04T08:55:17.969Z,4.43
2023-04-04T08:57:45.110Z,2.55
2023-04-04T09:00:12.769Z,4.72
2023-04-04T09:02:54.056Z,4.10
2023-04-04T09:05:23.412Z,7.65
2023-04-04T09:07:53.542Z,5.85
2023-04-04T09:10:21.309Z,3.13
2023-04-04T09:13:05.130Z,6.15
2023-04-04T09:15:38.979Z,6.22
2023-04-04T09:18:08.206Z,2.22
2023-04-04T09:20:48.092Z,5.00
2023-04-04T09:23:21.398Z,4.72
2023-04-04T09:28:23.456Z,5.10
2023-04-04T09:30:51.768Z,5.40
2023-04-04T09:33:22.056Z,5.40
2023-04-04T09:35:59.634Z,4.10
2023-04-04T09:38:28.809Z,4.80
2023-04-04T09:40:57.068Z,6.75
2023-04-04T09:43:25.178Z,4.90
2023-04-04T09:45:55.677Z,5.40
2023-04-04T09:48:33.792Z,5.20
2023-04-04T09:51:05.345Z,4.55
2023-04-04T09:53:36.680Z,5.22
2023-04-04T09:56:03.735Z,3.92
2023-04-04T09:58:44.238Z,5.70
2023-04-04T10:01:18.585Z,6.32
2023-04-04T10:03:55.146Z,4.95
2023-04-04T10:06:29.106Z,5.97
2023-04-04T10:08:58.504Z,4.35
2023-04-04T10:11:34.308Z,9.23
2023-04-04T10:14:07.122Z,5.80
2023-04-04T10:16:38.777Z,4.97
2023-04-04T10:19:10.442Z,7.15
2023-04-04T10:21:37.699Z,6.50
2023-04-04T10:24:11.405Z,6.18
2023-04-04T10:26:39.257Z,5.63
2023-04-04T10:29:07.767Z,4.30
2023-04-04T10:31:42.631Z,6.03
2023-04-04T10:34:32.695Z,3.78
2023-04-04T10:37:13.576Z,6.85
2023-04-04T10:40:08.013Z,5.38
2023-04-04T10:42:41.278Z,4.78
2023-04-04T10:45:20.394Z,4.43
2023-04-04T10:47:49.792Z,5.60
2023-04-04T10:50:16.995Z,3.70
2023-04-04T10:52:44.614Z,5.32
2023-04-04T10:55:18.591Z,5.85
2023-04-04T10:57:52.835Z,4.35
2023-04-04T11:00:27.288Z,4.40
2023-04-04T11:02:58.583Z,2.72
2023-04-04T11:05:47.471Z,5.80
2023-04-04T11:08:25.719Z,5.88
2023-04-04T11:10:55.889Z,4.68
2023-04-04T11:13:35.824Z,4.88
2023-04-04T11:16:16.097Z,4.53
2023-04-04T11:18:46.119Z,6.72
2023-04-04T11:21:24.112Z,6.22
2023-04-04T11:24:14.203Z,4.70
2023-04-04T11:26:42.912Z,7.50
2023-04-04T11:29:19.397Z,8.77
2023-04-04T11:31:49.101Z,3.53
2023-04-04T11:34:31.159Z,5.45
2023-04-04T11:37:01.950Z,6.97
2023-04-04T11:39:30.999Z,7.20
2023-04-04T11:42:15.297Z,6.78
2023-04-04T11:44:49.871Z,3.70
2023-04-04T11:47:20.709Z,6.13
2023-04-04T11:49:48.116Z,5.18
2023-04-04T11:52:17.848Z,7.43
2023-04-04T11:54:47.804Z,7.60
2023-04-04T11:57:16.386Z,7.40
2023-04-04T11:59:48.807Z,7.68
2023-04-04T12:02:35.977Z,4.45
2023-04-04T12:05:06.829Z,6.50
2023-04-04T12:07:35.463Z,4.28
2023-04-04T12:10:03.805Z,7.55
2023-04-04T12:12:33.215Z,7.00
2023-04-04T12:15:10.796Z,5.22
2023-04-04T12:17:45.929Z,3.90
2023-04-04T12:20:18.720Z,5.45
2023-04-04T12:22:51.202Z,5.63
2023-04-04T12:25:25.015Z,7.57
2023-04-04T12:27:54.059Z,7.65
2023-04-04T12:30:21.583Z,8.05
2023-04-04T12:32:49.929Z,5.47
2023-04-04T12:35:18.937Z,4.22
2023-04-04T12:38:03.499Z,4.57
2023-04-04T12:40:37.271Z,7.35
2023-04-04T12:43:09.431Z,4.75
2023-04-04T12:45:40.976Z,4.45
2023-04-04T12:48:14.896Z,5.75
2023-04-04T12:50:53.490Z,3.92
2023-04-04T12:53:29.545Z,4.28
2023-04-04T12:56:02.472Z,4.72
2023-04-04T12:58:30.332Z,7.15
2023-04-04T13:01:00.839Z,5.60
2023-04-04T13:03:28.844Z,4.32
2023-04-04T13:05:58.996Z,4.25
2023-04-04T13:08:27.097Z,7.85
2023-04-04T13:10:57.935Z,5.43
2023-04-04T13:13:33.890Z,5.60
2023-04-04T13:16:01.547Z,6.97
2023-04-04T13:18:41.877Z,7.43
2023-04-04T13:21:11.585Z,10.55
2023-04-04T13:23:42.445Z,4.15
2023-04-04T13:26:10.936Z,7.70
2023-04-04T13:28:38.724Z,6.05
2023-04-04T13:31:10.478Z,6.32
2023-04-04T13:33:38.092Z,8.73
2023-04-04T13:36:06.033Z,5.57
2023-04-04T13:38:33.662Z,4.32
2023-04-04T13:41:01.271Z,4.88
2023-04-04T13:43:28.198Z,6.55
2023-04-04T13:45:56.061Z,7.72
2023-04-04T13:48:23.398Z,5.90
2023-04-04T13:50:52.374Z,3.65
2023-04-04T13:53:19.404Z,3.47
2023-04-04T13:58:20.564Z,4.82
2023-04-04T14:00:49.094Z,4.60
2023-04-04T14:03:17.111Z,5.70
2023-04-04T14:05:44.696Z,3.85
2023-04-04T14:08:12.066Z,4.95
2023-04-04T14:10:39.189Z,4.70
2023-04-04T14:13:06.250Z,5.25
2023-04-04T14:15:33.904Z,4.25
2023-04-04T14:18:01.983Z,5.05
2023-04-04T14:20:29.404Z,6.07
2023-04-04T14:22:56.345Z,6.45
2023-04-04T14:25:23.452Z,4.05
2023-04-04T14:27:50.400Z,4.28
2023-04-04T14:30:17.656Z,4.40
2023-04-04T14:32:46.317Z,5.38
2023-04-04T14:35:13.338Z,9.45
2023-04-04T14:37:40.980Z,6.28
2023-04-04T14:40:08.939Z,6.10
2023-04-04T14:42:36.898Z,6.30
2023-04-04T14:45:07.777Z,6.15
2023-04-04T14:47:35.904Z,5.85
2023-04-04T14:50:03.011Z,6.43
2023-04-04T14:52:30.491Z,4.07
2023-04-04T14:54:58.210Z,5.70
2023-04-04T14:57:25.419Z,5.82
2023-04-04T14:59:52.418Z,4.43
2023-04-04T15:02:19.556Z,5.75
2023-04-04T15:04:46.837Z,4.93
2023-04-04T15:07:15.321Z,4.65
2023-04-04T15:09:42.633Z,4.03
2023-04-04T15:12:09.805Z,4.43
2023-04-04T15:14:37.878Z,6.80
2023-04-04T15:17:05.819Z,4.50
2023-04-04T15:19:33.531Z,3.92
2023-04-04T15:22:00.777Z,3.78
2023-04-04T15:24:27.811Z,4.80
2023-04-04T15:26:56.438Z,6.50
2023-04-04T15:29:26.097Z,3.25
2023-04-04T15:31:53.101Z,5.90
2023-04-04T15:34:20.350Z,5.88
2023-04-04T15:36:48.177Z,7.18
2023-04-04T15:39:15.225Z,5.57
2023-04-04T15:41:42.178Z,4.00
2023-04-04T15:44:09.272Z,7.75
2023-04-04T15:46:36.551Z,5.55
2023-04-04T15:49:04.246Z,4.10
2023-04-04T15:51:32.285Z,5.60
2023-04-04T15:54:00.053Z,5.55
2023-04-04T15:56:28.259Z,6.30
2023-04-04T15:58:55.981Z,5.32
2023-04-04T16:01:23.554Z,4.63
2023-04-04T16:03:51.433Z,4.70
2023-04-04T16:06:19.054Z,7.20
2023-04-04T16:08:46.355Z,4.90
2023-04-04T16:11:13.350Z,6.38
2023-04-04T16:13:40.885Z,5.95
2023-04-04T16:16:08.008Z,6.65
2023-04-04T16:18:37.197Z,7.07
2023-04-04T16:21:04.794Z,5.15
2023-04-04T16:23:35.520Z,7.32
2023-04-04T16:26:02.763Z,5.32
2023-04-04T16:28:29.856Z,7.80
2023-04-04T16:30:59.437Z,3.38
2023-04-04T16:33:26.585Z,5.88
2023-04-04T16:35:53.691Z,6.13
2023-04-04T16:38:21.003Z,5.93
2023-04-04T16:40:48.369Z,4.35
2023-04-04T16:43:15.373Z,7.63
2023-04-04T16:45:42.449Z,10.02
2023-04-04T16:48:09.690Z,5.40
2023-04-04T16:50:36.731Z,6.20
2023-04-04T16:53:04.300Z,4.88
2023-04-04T16:55:31.282Z,10.25
2023-04-04T16:57:58.865Z,7.28
2023-04-04T17:00:25.822Z,3.92
2023-04-04T17:02:52.787Z,4.18
2023-04-04T17:05:20.331Z,5.60
2023-04-04T17:07:47.552Z,5.95
2023-04-04T17:10:14.855Z,5.13
2023-04-04T17:12:43.460Z,7.93
2023-04-04T17:15:10.900Z,4.72
2023-04-04T17:17:38.200Z,4.10
2023-04-04T17:20:05.856Z,5.00
2023-04-04T17:22:32.960Z,4.15
2023-04-04T17:25:00.094Z,5.40
2023-04-04T17:27:27.311Z,5.55
2023-04-04T17:29:54.691Z,6.25
2023-04-04T17:32:22.351Z,4.93
2023-04-04T17:34:49.919Z,7.95
2023-04-04T17:37:17.379Z,7.38
2023-04-04T17:39:45.540Z,5.38
2023-04-04T17:42:13.551Z,5.90
2023-04-04T17:44:40.846Z,5.13
2023-04-04T17:47:08.826Z,4.40
2023-04-04T17:49:37.420Z,5.68
2023-04-04T17:52:04.978Z,5.22
2023-04-04T17:54:32.229Z,8.15
2023-04-04T17:56:59.630Z,9.68
2023-04-04T17:59:28.016Z,5.78
2023-04-04T18:01:57.641Z,13.68
2023-04-04T18:04:25.776Z,7.60
2023-04-04T18:06:54.957Z,6.32
2023-04-04T18:09:23.858Z,5.57
2023-04-04T18:11:52.483Z,5.65
2023-04-04T18:14:20.519Z,5.22
2023-04-04T18:16:48.477Z,7.57
2023-04-04T18:19:15.891Z,6.57
2023-04-04T18:21:43.767Z,7.13
2023-04-04T18:24:15.960Z,6.35
2023-04-04T18:26:45.194Z,8.57
2023-04-04T18:29:15.054Z,6.60
2023-04-04T18:31:42.204Z,8.25
2023-04-04T18:34:10.661Z,6.05
2023-04-04T18:36:38.453Z,7.60
2023-04-04T18:39:06.358Z,6.45
2023-04-04T18:41:34.162Z,7.60
2023-04-04T18:44:01.901Z,6.97
2023-04-04T18:46:28.982Z,7.65
2023-04-04T18:48:56.905Z,11.57
2023-04-04T18:51:25.233Z,9.02
2023-04-04T18:53:52.434Z,6.60
2023-04-04T18:56:20.311Z,7.03
2023-04-04T18:58:48.555Z,7.03
2023-04-04T19:01:17.711Z,5.75
2023-04-04T19:03:48.934Z,6.28
2023-04-04T19:06:17.062Z,8.32
2023-04-04T19:08:45.516Z,9.35
2023-04-04T19:11:13.143Z,8.75
2023-04-04T19:13:41.005Z,7.20
2023-04-04T19:16:08.524Z,7.75
2023-04-04T19:18:36.296Z,8.60
2023-04-04T19:21:05.926Z,13.63
2023-04-04T19:23:33.784Z,8.77
2023-04-04T19:26:04.601Z,11.95
2023-04-04T19:28:32.756Z,11.02
2023-04-04T19:31:03.154Z,7.75
2023-04-04T19:33:36.151Z,8.68
2023-04-04T19:36:12.198Z,6.18
2023-04-04T19:38:52.235Z,7.05
2023-04-04T19:41:24.856Z,6.13
2023-04-04T19:43:53.225Z,5.18
2023-04-04T19:46:31.822Z,9.98
2023-04-04T19:49:10.510Z,7.72
2023-04-04T19:51:43.817Z,9.25
2023-04-04T19:54:15.313Z,7.10
2023-04-04T19:56:46.884Z,6.28
2023-04-04T19:59:52.496Z,7.85
2023-04-04T20:02:35.744Z,7.93
2023-04-04T20:05:37.491Z,7.63
2023-04-04T20:08:07.549Z,7.47
2023-04-04T20:10:41.567Z,9.52
2023-04-04T20:13:14.721Z,7.07
2023-04-04T20:15:45.496Z,8.13
2023-04-04T20:18:22.612Z,6.65
2023-04-04T20:20:58.547Z,9.27
2023-04-04T20:23:28.357Z,9.23
2023-04-04T20:26:07.484Z,9.40
2023-04-04T20:28:36.433Z,10.75
2023-04-04T20:31:10.886Z,12.23
2023-04-04T20:33:41.214Z,9.82
2023-04-04T20:36:30.289Z,10.45
2023-04-04T20:38:59.248Z,7.43
2023-04-04T20:41:27.905Z,10.10
2023-04-04T20:43:57.404Z,9.25
2023-04-04T20:46:26.768Z,14.75
2023-04-04T20:48:57.949Z,9.50
2023-04-04T20:52:20.705Z,9.88
2023-04-04T20:54:50.797Z,8.77
2023-04-04T20:57:43.940Z,8.50
2023-04-04T21:00:31.484Z,8.60
2023-04-04T21:03:00.898Z,14.70
2023-04-04T21:05:35.275Z,8.90
2023-04-04T21:08:03.486Z,11.77
2023-04-04T21:10:30.515Z,8.48
2023-04-04T21:13:01.043Z,8.77
2023-04-04T21:15:35.460Z,12.77
2023-04-04T21:18:08.132Z,9.70
2023-04-04T21:20:48.030Z,13.43
2023-04-04T21:23:33.710Z,12.30
2023-04-04T21:26:05.311Z,11.45
2023-04-04T21:28:38.998Z,8.48
2023-04-04T21:31:17.965Z,12.07
2023-04-04T21:33:51.526Z,9.48
2023-04-04T21:36:28.832Z,9.07
2023-04-04T21:38:59.347Z,11.65
2023-04-04T21:41:29.028Z,12.85
2023-04-04T21:44:01.778Z,8.43
2023-04-04T21:46:32.942Z,7.75
2023-04-04T21:49:00.986Z,9.13
2023-04-04T21:51:28.778Z,7.88
2023-04-04T21:53:56.496Z,10.23
2023-04-04T21:56:32.914Z,12.02
2023-04-04T21:59:05.355Z,9.48
2023-04-04T22:01:32.887Z,8.00
2023-04-04T22:04:00.249Z,8.32
2023-04-04T22:06:28.282Z,7.90
2023-04-04T22:08:57.689Z,12.13
2023-04-04T22:11:29.235Z,13.40
2023-04-04T22:14:04.302Z,11.10
2023-04-04T22:16:33.018Z,9.57
2023-04-04T22:19:02.049Z,12.43
2023-04-04T22:21:29.434Z,7.22
2023-04-04T22:24:01.056Z,9.80
2023-04-04T22:26:36.628Z,8.48
2023-04-04T22:29:06.922Z,11.82
2023-04-04T22:31:35.027Z,13.32
2023-04-04T22:34:03.803Z,15.93
2023-04-04T22:36:31.284Z,13.70
2023-04-04T22:38:58.585Z,9.50
2023-04-04T22:41:28.157Z,14.43
2023-04-04T22:43:56.325Z,9.48
2023-04-04T22:46:26.222Z,10.75
2023-04-04T22:49:05.357Z,11.77
2023-04-04T22:51:35.285Z,10.27
2023-04-04T22:54:03.753Z,10.65
2023-04-04T22:56:31.711Z,10.07
2023-04-04T22:58:59.889Z,8.10
2023-04-04T23:01:26.924Z,10.60
2023-04-04T23:03:54.094Z,10.52
2023-04-04T23:06:21.179Z,10.82
2023-04-04T23:08:48.254Z,12.82
2023-04-04T23:11:17.338Z,14.45
2023-04-04T23:13:44.859Z,12.63
2023-04-04T23:16:12.308Z,10.90
2023-04-04T23:18:39.713Z,12.82
2023-04-04T23:21:07.789Z,11.50
2023-04-04T23:23:35.649Z,11.25
2023-04-04T23:26:03.456Z,13.95
2023-04-04T23:28:30.667Z,10.73
2023-04-04T23:31:00.829Z,15.20
2023-04-04T23:33:28.911Z,10.90
2023-04-04T23:35:56.252Z,13.02
2023-04-04T23:38:25.817Z,13.25
2023-04-04T23:40:54.281Z,11.52
2023-04-04T23:43:21.501Z,11.73
2023-04-04T23:45:48.952Z,12.50
2023-04-04T23:48:17.346Z,13.73
2023-04-04T23:50:44.564Z,14.05
2023-04-04T23:53:13.059Z,12.55
2023-04-04T23:55:40.525Z,10.90
2023-04-04T23:58:08.562Z,9.27
